Time;durP1;ratioP1;P1;durP2;ratioP2;P2;SDS_P1;SDS_P2;PMS_P1;PMS_P2;Temp;Humidity;BMP_temperature;BMP_pressure;BME280_temperature;BME280_humidity;BME280_pressure;Samples;Min_cycle;Max_cycle;Signal;HPM_P1;HPM_P2
2022/12/31 00:00:06;;;;;;;72.90;36.20;;;;;;;-0.11;96.38;98513.46;104600;1292;22606;-78
2022/12/31 00:02:32;;;;;;;72.60;37.10;;;;;;;-0.10;96.60;98506.70;104589;1312;140072;-79
2022/12/31 00:04:58;;;;;;;69.70;36.50;;;;;;;-0.08;96.60;98510.56;104452;1304;22532;-78
2022/12/31 00:07:25;;;;;;;69.40;35.30;;;;;;;-0.06;96.47;98499.61;104141;1308;138509;-78
2022/12/31 00:09:51;;;;;;;70.30;36.20;;;;;;;-0.07;96.17;98505.03;104311;1297;22524;-78
2022/12/31 00:12:17;;;;;;;69.40;37.00;;;;;;;-0.06;96.17;98500.36;104153;1289;24269;-78
2022/12/31 00:14:43;;;;;;;71.70;35.80;;;;;;;-0.05;96.66;98502.55;104686;1288;139070;-79
2022/12/31 00:17:09;;;;;;;67.30;36.60;;;;;;;-0.03;96.43;98512.31;104055;1312;22480;-78
2022/12/31 00:19:36;;;;;;;72.80;36.50;;;;;;;-0.01;96.59;98512.11;103793;1290;137927;-78
2022/12/31 00:22:02;;;;;;;65.00;35.10;;;;;;;0.02;96.82;98505.16;104043;1296;25851;-79
2022/12/31 00:24:29;;;;;;;66.60;35.30;;;;;;;0.03;96.45;98509.37;103929;1299;22562;-79
2022/12/31 00:26:56;;;;;;;68.70;35.90;;;;;;;0.04;96.60;98502.23;103934;1291;138744;-78
2022/12/31 00:29:22;;;;;;;68.90;34.40;;;;;;;0.05;96.62;98505.84;103844;1310;22489;-78
2022/12/31 00:31:48;;;;;;;62.90;33.00;;;;;;;0.05;96.68;98507.81;103890;1298;138472;-78
2022/12/31 00:34:14;;;;;;;68.70;34.80;;;;;;;0.05;96.52;98509.62;104449;1297;22481;-79
2022/12/31 00:36:41;;;;;;;74.50;35.00;;;;;;;0.05;96.60;98517.79;103937;1291;25371;-79
2022/12/31 00:39:09;;;;;;;67.60;35.20;;;;;;;0.06;96.61;98522.77;104041;1312;138219;-79
2022/12/31 00:41:35;;;;;;;73.90;38.00;;;;;;;0.05;96.77;98521.89;104587;1310;22471;-79
2022/12/31 00:44:02;;;;;;;68.10;34.10;;;;;;;0.07;96.91;98514.16;102380;1298;1306252;-78
2022/12/31 00:46:28;;;;;;;69.40;35.30;;;;;;;0.08;96.89;98520.86;103635;1304;22490;-79
2022/12/31 00:48:54;;;;;;;69.10;36.10;;;;;;;0.11;96.63;98522.88;103269;1306;23500;-79
2022/12/31 00:51:22;;;;;;;69.70;33.50;;;;;;;0.13;96.83;98523.70;103245;1291;138056;-79
2022/12/31 00:53:49;;;;;;;65.20;36.00;;;;;;;0.14;97.14;98515.99;103875;1292;22482;-79
2022/12/31 00:56:19;;;;;;;72.10;36.70;;;;;;;0.20;97.28;98509.20;103501;1306;138364;-78
2022/12/31 00:58:46;;;;;;;69.50;34.40;;;;;;;0.22;97.19;98505.66;103642;1305;24487;-79
2022/12/31 01:01:21;;;;;;;67.70;34.60;;;;;;;0.26;97.20;98508.48;103264;1304;22513;-79
2022/12/31 01:03:50;;;;;;;74.40;36.30;;;;;;;0.29;97.35;98505.26;103266;1304;22463;-79
2022/12/31 01:06:17;;;;;;;60.50;32.80;;;;;;;0.33;97.47;98502.61;104033;1305;25145;-79
2022/12/31 01:08:46;;;;;;;59.40;33.10;;;;;;;0.36;97.51;98495.88;104501;1313;138219;-79
2022/12/31 01:11:19;;;;;;;59.50;30.20;;;;;;;0.40;97.49;98498.82;103375;1313;26491;-79
2022/12/31 01:13:57;;;;;;;68.70;34.30;;;;;;;0.43;97.32;98497.63;103693;1291;139350;-79
2022/12/31 01:16:27;;;;;;;64.10;34.20;;;;;;;0.41;96.69;98497.04;103079;1290;22978;-79
2022/12/31 01:18:54;;;;;;;61.70;32.40;;;;;;;0.40;96.37;98495.73;103363;1287;25360;-79
2022/12/31 01:21:21;;;;;;;59.90;32.30;;;;;;;0.41;96.40;98497.98;103877;1291;140753;-79
2022/12/31 01:23:48;;;;;;;66.30;34.20;;;;;;;0.42;96.52;98494.86;103557;1313;22505;-79
2022/12/31 01:26:15;;;;;;;69.40;34.50;;;;;;;0.44;96.80;98489.77;103522;1294;138734;-79
2022/12/31 01:28:42;;;;;;;63.20;33.60;;;;;;;0.47;96.91;98487.33;103802;1290;25386;-79
2022/12/31 01:31:14;;;;;;;66.20;33.00;;;;;;;0.49;96.57;98486.68;103315;1289;22511;-79
2022/12/31 01:33:40;;;;;;;65.70;32.80;;;;;;;0.49;96.48;98489.29;103492;1298;137961;-79
2022/12/31 01:36:10;;;;;;;65.00;32.80;;;;;;;0.50;96.54;98494.09;104148;1289;24340;-79
2022/12/31 01:38:36;;;;;;;59.70;32.30;;;;;;;0.51;96.76;98497.45;103731;1298;138062;-79
2022/12/31 01:41:03;;;;;;;63.70;32.60;;;;;;;0.54;96.96;98493.88;103232;1298;22466;-79
2022/12/31 01:43:59;;;;;;;60.00;31.20;;;;;;;0.58;96.94;98491.21;103334;1289;138472;-79
2022/12/31 01:46:51;;;;;;;60.60;31.40;;;;;;;0.57;96.51;98489.64;103897;1291;24033;-79
2022/12/31 01:49:18;;;;;;;64.30;30.70;;;;;;;0.57;96.39;98490.88;103311;1313;24444;-79
2022/12/31 01:51:49;;;;;;;52.20;28.80;;;;;;;0.58;96.46;98493.52;103718;1310;138241;-79
2022/12/31 01:54:19;;;;;;;62.90;30.80;;;;;;;0.59;96.35;98486.38;104682;1306;22206;-79
2022/12/31 01:56:46;;;;;;;;;;;;;;;0.61;96.64;98486.32;103416;1304;138501;-79
2022/12/31 01:59:16;;;;;;;60.90;31.80;;;;;;;0.63;96.85;98490.70;104084;1313;24362;-79
2022/12/31 02:01:45;;;;;;;54.10;28.90;;;;;;;0.66;96.69;98491.67;104113;1313;138902;-79
2022/12/31 02:04:14;;;;;;;53.80;28.20;;;;;;;0.70;96.96;98478.52;104310;1313;22537;-79
2022/12/31 02:06:49;;;;;;;50.80;27.70;;;;;;;0.75;97.14;98476.99;103946;1313;24417;-79
2022/12/31 02:09:15;;;;;;;51.80;28.20;;;;;;;0.82;97.47;98479.23;103046;1313;139057;-79
2022/12/31 02:11:41;;;;;;;51.60;28.20;;;;;;;0.89;97.54;98483.27;103198;1290;22479;-79
2022/12/31 02:14:18;;;;;;;47.60;26.70;;;;;;;0.95;97.61;98483.90;103089;1304;138955;-79
2022/12/31 02:16:55;;;;;;;47.00;26.40;;;;;;;1.03;97.65;98487.61;103223;1304;25553;-79
2022/12/31 02:19:47;;;;;;;48.30;25.90;;;;;;;1.10;97.59;98489.86;103591;1289;25441;-79
2022/12/31 02:22:46;;;;;;;45.70;25.70;;;;;;;1.19;97.45;98490.16;103704;1297;22484;-79
2022/12/31 02:25:36;;;;;;;39.70;21.30;;;;;;;1.27;97.30;98483.95;103519;1313;22517;-79
2022/12/31 02:28:05;;;;;;;38.80;20.50;;;;;;;1.34;97.15;98486.48;105673;1291;22560;-79
2022/12/31 02:30:33;;;;;;;38.70;19.80;;;;;;;1.42;97.38;98482.30;103631;1313;24297;-79
2022/12/31 02:33:09;;;;;;;39.70;20.00;;;;;;;1.50;97.45;98474.33;103534;1284;138557;-79
2022/12/31 02:35:54;;;;;;;36.80;18.70;;;;;;;1.58;97.18;98473.02;103429;1305;22520;-79
2022/12/31 02:38:30;;;;;;;42.50;22.40;;;;;;;1.64;96.98;98473.10;103734;1294;138994;-79
2022/12/31 02:40:57;;;;;;;46.40;24.20;;;;;;;1.69;96.76;98483.73;103768;1314;22714;-79
2022/12/31 02:43:24;;;;;;;46.90;24.60;;;;;;;1.73;96.54;98491.55;103690;1290;24266;-79
2022/12/31 02:46:03;;;;;;;52.40;27.50;;;;;;;1.74;95.99;98490.95;103479;1314;138039;-79
2022/12/31 02:48:48;;;;;;;47.10;26.20;;;;;;;1.74;95.62;98489.27;103714;1298;22490;-79
2022/12/31 02:51:24;;;;;;;44.70;24.70;;;;;;;1.75;95.42;98479.92;103782;1304;138682;-79
2022/12/31 02:54:10;;;;;;;48.90;24.40;;;;;;;1.76;95.43;98478.86;103971;1288;25081;-79
2022/12/31 02:56:47;;;;;;;42.80;21.80;;;;;;;1.79;95.50;98476.88;104176;1287;138365;-79
2022/12/31 03:02:14;;;;;;;41.10;22.50;;;;;;;1.86;95.46;98478.36;103828;1300;138316;-79
2022/12/31 03:04:44;;;;;;;46.30;24.00;;;;;;;1.92;95.58;98491.23;103724;1292;22540;-78
2022/12/31 03:07:16;;;;;;;41.40;23.80;;;;;;;1.96;95.27;98493.47;103703;1289;24285;-79
2022/12/31 03:09:42;;;;;;;48.30;26.30;;;;;;;1.98;95.13;98487.60;103719;1289;139468;-79
2022/12/31 03:14:57;;;;;;;42.50;23.60;;;;;;;2.00;94.53;98475.67;103574;1313;138218;-78
2022/12/31 03:17:24;;;;;;;40.60;22.80;;;;;;;2.00;94.47;98474.80;103622;1303;22504;-79
2022/12/31 03:22:39;;;;;;;39.10;22.60;;;;;;;1.98;94.32;98458.91;103602;1288;22508;-78
2022/12/31 03:25:34;;;;;;;40.20;22.50;;;;;;;1.97;94.36;98451.75;103415;1289;24409;-79
2022/12/31 03:28:05;;;;;;;48.80;26.10;;;;;;;1.99;94.73;98464.42;103380;1313;138422;-79
2022/12/31 03:30:32;;;;;;;48.10;25.80;;;;;;;2.01;94.75;98462.34;103483;1291;26880;-79
2022/12/31 03:33:00;;;;;;;49.80;27.20;;;;;;;2.01;94.64;98450.48;103513;1292;141945;-79
2022/12/31 03:35:28;;;;;;;50.20;25.90;;;;;;;2.02;94.32;98449.02;103328;1290;25262;-78
2022/12/31 03:37:55;;;;;;;51.40;26.60;;;;;;;2.01;94.07;98444.48;103252;1288;138899;-79
2022/12/31 03:40:23;;;;;;;50.80;25.50;;;;;;;2.00;94.05;98428.89;103368;1286;22334;-78
2022/12/31 03:42:50;;;;;;;51.40;27.40;;;;;;;1.97;93.79;98431.72;103343;1310;22512;-78
2022/12/31 03:45:17;;;;;;;49.60;26.90;;;;;;;1.93;93.56;98445.40;103418;1297;138137;-79
2022/12/31 03:47:44;;;;;;;53.80;26.90;;;;;;;1.89;93.25;98458.95;103579;1290;25422;-78
2022/12/31 03:50:12;;;;;;;61.70;32.00;;;;;;;1.79;92.29;98470.52;103368;1288;137204;-79
2022/12/31 03:52:38;;;;;;;60.60;34.70;;;;;;;1.65;91.36;98479.80;103700;1303;22540;-78
2022/12/31 03:55:05;;;;;;;63.70;32.70;;;;;;;1.50;91.12;98484.65;103383;1313;22569;-78
2022/12/31 03:57:32;;;;;;;62.10;34.40;;;;;;;1.34;90.63;98487.69;103246;1287;138687;-78
2022/12/31 03:59:58;;;;;;;64.60;34.00;;;;;;;1.21;91.10;98486.38;103533;1297;22200;-78
2022/12/31 04:02:25;;;;;;;72.00;35.40;;;;;;;1.12;91.54;98484.71;103122;1305;138283;-78
2022/12/31 04:04:51;;;;;;;58.70;34.70;;;;;;;1.09;92.04;98481.92;103349;1300;22488;-78
2022/12/31 04:07:17;;;;;;;61.90;33.20;;;;;;;1.07;92.21;98483.80;103307;1294;27550;-78
2022/12/31 04:09:43;;;;;;;58.30;32.50;;;;;;;1.06;92.64;98483.33;103808;1298;138126;-78
2022/12/31 04:12:09;;;;;;;60.60;31.90;;;;;;;1.07;92.99;98482.02;103443;1294;25283;-79
2022/12/31 04:14:36;;;;;;;62.80;32.20;;;;;;;1.07;93.17;98481.93;104028;1304;137036;-78
2022/12/31 04:17:02;;;;;;;64.00;32.90;;;;;;;1.09;93.45;98479.25;103741;1296;22487;-79
2022/12/31 04:19:28;;;;;;;67.20;35.00;;;;;;;1.10;93.75;98477.83;104266;1306;22491;-78
2022/12/31 04:21:54;;;;;;;61.10;33.00;;;;;;;1.14;94.00;98488.10;103411;1291;137974;-79
2022/12/31 04:24:20;;;;;;;62.40;32.30;;;;;;;1.18;94.36;98491.75;103269;1316;22521;-78
2022/12/31 04:26:46;;;;;;;58.40;31.90;;;;;;;1.24;94.74;98499.47;103180;1300;138117;-79
2022/12/31 04:29:13;;;;;;;66.40;33.10;;;;;;;1.29;94.90;98498.15;103481;1303;24838;-78
2022/12/31 04:31:39;;;;;;;53.80;29.40;;;;;;;1.33;95.15;98494.08;103387;1302;138398;-77
2022/12/31 04:34:06;;;;;;;53.20;28.20;;;;;;;1.40;95.77;98489.63;103694;1304;22476;-78
2022/12/31 04:36:33;;;;;;;51.10;26.90;;;;;;;1.52;96.33;98486.48;103732;1311;22608;-79
2022/12/31 04:38:59;;;;;;;55.00;29.30;;;;;;;1.62;96.49;98491.48;103463;1313;138269;-78
2022/12/31 04:41:26;;;;;;;56.70;28.60;;;;;;;1.70;96.40;98488.33;103412;1312;22494;-79
2022/12/31 04:43:54;;;;;;;53.70;28.90;;;;;;;1.77;96.27;98497.50;103270;1304;138417;-78
2022/12/31 04:46:31;;;;;;;53.00;29.50;;;;;;;1.82;96.16;98500.46;103289;1289;24391;-78
2022/12/31 04:48:59;;;;;;;57.30;30.90;;;;;;;1.87;95.99;98498.08;103150;1297;25205;-78
2022/12/31 04:51:27;;;;;;;54.90;30.70;;;;;;;1.91;95.79;98500.48;103499;1313;139070;-79
2022/12/31 04:53:54;;;;;;;58.60;31.20;;;;;;;1.94;95.65;98504.36;103196;1307;25296;-78
2022/12/31 04:56:20;;;;;;;60.60;31.60;;;;;;;1.97;95.65;98509.77;103266;1303;139524;-78
2022/12/31 04:58:47;;;;;;;56.80;30.30;;;;;;;1.98;95.43;98508.50;103483;1301;22532;-78
2022/12/31 05:01:31;;;;;;;59.10;33.30;;;;;;;2.00;95.27;98510.85;103381;1289;22538;-78
2022/12/31 05:04:11;;;;;;;54.00;29.20;;;;;;;2.00;95.16;98512.05;103326;1289;22469;-78
2022/12/31 05:06:39;;;;;;;56.80;30.00;;;;;;;2.01;94.92;98524.32;103383;1291;22500;-78
2022/12/31 05:09:05;;;;;;;61.80;31.10;;;;;;;2.01;94.82;98526.95;103296;1304;138119;-78
2022/12/31 05:11:31;;;;;;;55.80;30.80;;;;;;;2.02;95.04;98528.33;103474;1298;24261;-78
2022/12/31 05:13:57;;;;;;;57.10;31.70;;;;;;;2.03;95.16;98531.45;103124;1296;138282;-78
2022/12/31 05:16:24;;;;;;;57.70;30.80;;;;;;;2.05;95.42;98534.77;103422;1312;22509;-78
2022/12/31 05:18:50;;;;;;;56.80;30.20;;;;;;;2.08;95.42;98532.25;103376;1290;33003;-78
2022/12/31 05:21:20;;;;;;;57.60;31.30;;;;;;;2.11;95.67;98534.43;103601;1305;139083;-78
2022/12/31 05:23:46;;;;;;;55.20;31.50;;;;;;;2.13;95.64;98536.81;103331;1312;22435;-78
2022/12/31 05:26:13;;;;;;;58.50;30.60;;;;;;;2.15;95.76;98537.25;103279;1308;138862;-78
2022/12/31 05:28:39;;;;;;;54.80;30.20;;;;;;;2.18;95.72;98532.37;103141;1291;25301;-78
2022/12/31 05:31:05;;;;;;;62.60;32.70;;;;;;;2.21;95.75;98530.67;103213;1313;22500;-78
2022/12/31 05:33:32;;;;;;;64.10;34.00;;;;;;;2.24;95.67;98530.81;103310;1289;138175;-78
2022/12/31 05:35:59;;;;;;;62.40;34.70;;;;;;;2.27;95.74;98534.58;103175;1287;22738;-78
2022/12/31 05:38:25;;;;;;;65.80;34.90;;;;;;;2.29;95.74;98536.62;103399;1287;140547;-78
2022/12/31 05:41:05;;;;;;;60.90;35.40;;;;;;;2.31;95.71;98534.75;103212;1313;22542;-78
2022/12/31 05:43:32;;;;;;;81.60;43.70;;;;;;;2.34;95.66;98533.94;103309;1294;22499;-78
2022/12/31 05:46:00;;;;;;;81.50;45.50;;;;;;;2.34;95.76;98532.95;103189;1290;140328;-78
2022/12/31 05:48:27;;;;;;;79.90;43.00;;;;;;;2.37;95.81;98532.38;103364;1298;22730;-79
2022/12/31 05:50:54;;;;;;;72.10;38.80;;;;;;;2.39;95.84;98529.42;103198;1298;137182;-78
2022/12/31 05:53:20;;;;;;;67.50;35.70;;;;;;;2.41;95.88;98524.19;103211;1292;22520;-79
2022/12/31 05:55:47;;;;;;;62.20;35.40;;;;;;;2.43;95.82;98522.35;103309;1298;139346;-79
2022/12/31 05:58:14;;;;;;;67.50;37.40;;;;;;;2.45;95.70;98518.77;103518;1313;22483;-79
2022/12/31 06:00:41;;;;;;;68.70;37.40;;;;;;;2.45;95.58;98517.04;103339;1297;25355;-79
2022/12/31 06:03:08;;;;;;;67.20;38.60;;;;;;;2.46;95.64;98518.06;103262;1313;138322;-79
2022/12/31 06:05:40;;;;;;;67.70;37.70;;;;;;;2.46;95.53;98523.16;103392;1298;24043;-79
2022/12/31 06:08:06;;;;;;;69.60;38.90;;;;;;;2.47;95.60;98523.05;103267;1295;138280;-79
2022/12/31 06:10:32;;;;;;;67.50;34.40;;;;;;;2.49;95.72;98525.45;103416;1291;26943;-79
2022/12/31 06:12:58;;;;;;;64.00;35.80;;;;;;;2.50;95.91;98528.70;103473;1288;22963;-79
2022/12/31 06:15:25;;;;;;;60.50;34.10;;;;;;;2.52;95.85;98536.12;103131;1296;138538;-79
2022/12/31 06:17:51;;;;;;;66.90;35.60;;;;;;;2.53;96.09;98546.35;103395;1281;22515;-79
2022/12/31 06:20:17;;;;;;;60.00;32.20;;;;;;;2.56;95.86;98554.30;104703;1290;139677;-80
2022/12/31 06:22:44;;;;;;;61.20;34.00;;;;;;;2.58;96.07;98547.80;105201;1294;23203;-79
2022/12/31 06:25:10;;;;;;;55.90;30.70;;;;;;;2.60;96.12;98549.06;103481;1292;22492;-79
2022/12/31 06:27:36;;;;;;;54.50;30.30;;;;;;;2.64;96.33;98547.20;103155;1301;138149;-79
2022/12/31 06:30:03;;;;;;;55.10;30.60;;;;;;;2.68;96.43;98549.43;103505;1303;25399;-79
2022/12/31 06:32:30;;;;;;;59.40;31.20;;;;;;;2.72;96.64;98553.20;103719;1292;140897;-79
2022/12/31 06:34:56;;;;;;;58.10;30.80;;;;;;;2.77;96.64;98560.44;103192;1302;22503;-79
2022/12/31 06:37:23;;;;;;;53.50;29.60;;;;;;;2.80;96.67;98562.50;103000;1298;25400;-79
2022/12/31 06:39:49;;;;;;;50.60;28.20;;;;;;;2.85;96.82;98561.59;102938;1301;138920;-79
2022/12/31 06:42:15;;;;;;;50.60;29.60;;;;;;;2.89;97.06;98566.48;103265;1303;22605;-79
2022/12/31 06:44:41;;;;;;;55.10;28.60;;;;;;;2.94;97.26;98575.37;103247;1297;138620;-79
2022/12/31 06:47:14;;;;;;;46.40;25.70;;;;;;;2.99;97.24;98570.40;103596;1299;22482;-79
2022/12/31 06:49:40;;;;;;;43.80;26.40;;;;;;;3.05;97.42;98564.66;103453;1294;138985;-79
2022/12/31 06:52:07;;;;;;;48.40;27.10;;;;;;;3.07;97.06;98570.15;103568;1289;23182;-79
2022/12/31 06:54:33;;;;;;;43.30;25.20;;;;;;;3.08;96.47;98570.23;103691;1295;22711;-78
2022/12/31 06:56:59;;;;;;;44.60;26.00;;;;;;;3.10;96.70;98574.30;103212;1296;138083;-79
2022/12/31 06:59:28;;;;;;;45.40;26.40;;;;;;;3.11;96.59;98575.89;104090;1312;22963;-79
2022/12/31 07:02:16;;;;;;;45.60;26.70;;;;;;;3.13;96.66;98578.73;103302;1300;138240;-78
2022/12/31 07:05:06;;;;;;;43.70;25.10;;;;;;;3.15;96.72;98577.21;105441;1297;24362;-78
2022/12/31 07:07:54;;;;;;;47.80;25.00;;;;;;;3.18;96.79;98582.95;104580;1292;23044;-79
2022/12/31 07:10:35;;;;;;;44.00;25.20;;;;;;;3.21;96.82;98577.09;103946;1290;33404;-78
2022/12/31 07:13:41;;;;;;;48.10;26.90;;;;;;;3.26;97.12;98575.06;103830;1297;22492;-78
2022/12/31 07:16:28;;;;;;;44.80;25.20;;;;;;;3.33;97.29;98575.31;103307;1304;138482;-78
2022/12/31 07:19:01;;;;;;;53.60;29.20;;;;;;;3.39;97.36;98568.52;103185;1296;22636;-77
2022/12/31 07:21:39;;;;;;;53.60;29.30;;;;;;;3.47;97.53;98571.33;103068;1290;138437;-78
2022/12/31 07:24:08;;;;;;;43.30;23.80;;;;;;;3.55;97.74;98572.66;102878;1314;25268;-79
2022/12/31 07:26:46;;;;;;;37.20;20.90;;;;;;;3.65;98.57;98576.70;103658;1300;138192;-77
2022/12/31 07:29:20;;;;;;;39.70;19.80;;;;;;;3.79;99.18;98583.58;103820;1289;23103;-78
2022/12/31 07:32:01;;;;;;;34.80;20.90;;;;;;;3.91;99.13;98590.48;104117;1286;138283;-77
2022/12/31 07:34:35;;;;;;;35.60;20.90;;;;;;;4.00;98.73;98595.77;103719;1287;24368;-78
2022/12/31 07:37:24;;;;;;;37.30;22.30;;;;;;;4.07;98.49;98598.41;103134;1303;23927;-78
2022/12/31 07:40:11;;;;;;;37.00;22.10;;;;;;;4.14;98.14;98596.83;103440;1312;138098;-78
2022/12/31 07:42:56;;;;;;;36.50;21.40;;;;;;;4.18;98.10;98601.98;103166;1294;25329;-77
2022/12/31 07:45:40;;;;;;;37.60;21.00;;;;;;;4.24;97.81;98598.74;103656;1292;138078;-78
2022/12/31 07:48:21;;;;;;;34.60;21.20;;;;;;;4.29;97.89;98590.39;103262;1309;24204;-78
2022/12/31 07:50:48;;;;;;;32.80;19.40;;;;;;;4.35;97.79;98587.83;104056;1313;139057;-78
2022/12/31 07:53:15;;;;;;;32.50;19.90;;;;;;;4.40;97.72;98587.40;103628;1288;24251;-78
2022/12/31 07:55:41;;;;;;;35.00;21.90;;;;;;;4.45;97.59;98595.30;103847;1298;26246;-78
2022/12/31 07:58:19;;;;;;;33.40;19.90;;;;;;;4.50;97.44;98604.19;104920;1290;140491;-78
2022/12/31 08:00:45;;;;;;;30.50;18.50;;;;;;;4.56;97.49;98616.73;103121;1313;23062;-77
2022/12/31 08:03:44;;;;;;;33.20;20.10;;;;;;;4.63;97.65;98621.62;103324;1291;138105;-78
2022/12/31 08:07:07;;;;;;;32.50;17.30;;;;;;;4.69;97.50;98621.39;103061;1292;22478;-77
2022/12/31 08:10:05;;;;;;;27.00;16.50;;;;;;;4.78;97.45;98616.69;102130;1324;138243;-77
2022/12/31 08:12:36;;;;;;;25.50;14.90;;;;;;;4.86;97.42;98623.01;101832;1305;25621;-77
2022/12/31 08:15:12;;;;;;;24.30;13.60;;;;;;;4.94;97.63;98617.97;101772;1312;138202;-77
2022/12/31 08:17:38;;;;;;;20.60;12.30;;;;;;;5.03;97.80;98612.09;101987;1322;25499;-77
2022/12/31 08:20:05;;;;;;;18.60;11.20;;;;;;;5.13;97.83;98618.11;101515;1327;138326;-77
2022/12/31 08:23:10;;;;;;;19.20;11.20;;;;;;;5.24;97.95;98610.58;101765;1311;25582;-77
2022/12/31 08:25:55;;;;;;;24.20;12.70;;;;;;;5.38;98.00;98607.03;101615;1327;25398;-77
2022/12/31 08:28:58;;;;;;;22.40;13.60;;;;;;;5.50;97.78;98600.02;101606;1320;24306;-77
2022/12/31 08:31:29;;;;;;;22.60;13.40;;;;;;;5.63;97.65;98599.30;101613;1302;22584;-77
2022/12/31 08:34:05;;;;;;;22.40;13.70;;;;;;;5.75;97.57;98600.23;101496;1319;140299;-78
2022/12/31 08:36:47;;;;;;;18.20;11.00;;;;;;;5.85;97.24;98602.38;101668;1310;24341;-77
2022/12/31 08:39:33;;;;;;;20.20;12.40;;;;;;;5.96;97.08;98605.63;101742;1314;141298;-77
2022/12/31 08:42:02;;;;;;;18.60;11.20;;;;;;;6.07;97.07;98606.11;102413;1312;22511;-77
2022/12/31 08:44:58;;;;;;;20.30;12.00;;;;;;;6.16;96.83;98606.41;102521;1288;138960;-77
2022/12/31 08:47:50;;;;;;;19.50;12.20;;;;;;;6.26;96.43;98611.67;102487;1304;24409;-77
2022/12/31 08:50:17;;;;;;;20.70;12.90;;;;;;;6.35;96.25;98617.42;104425;1289;139079;-78
2022/12/31 08:52:45;;;;;;;23.80;14.90;;;;;;;6.44;96.24;98625.04;104910;1289;22540;-77
2022/12/31 08:55:13;;;;;;;21.00;14.40;;;;;;;6.53;95.87;98619.97;103404;1296;25215;-77
2022/12/31 08:57:48;;;;;;;20.30;13.90;;;;;;;6.62;95.81;98624.42;103381;1313;138090;-77
2022/12/31 09:00:17;;;;;;;22.50;13.60;;;;;;;6.71;95.55;98625.55;105361;1299;22350;-77
2022/12/31 09:02:48;;;;;;;21.20;14.20;;;;;;;6.79;95.07;98629.34;105240;1281;139308;-77
2022/12/31 09:05:24;;;;;;;25.70;14.40;;;;;;;6.90;95.10;98633.07;105071;1290;23293;-78
2022/12/31 09:07:59;;;;;;;22.10;14.40;;;;;;;6.98;94.62;98635.15;104775;1290;25043;-77
2022/12/31 09:10:32;;;;;;;18.10;13.00;;;;;;;7.06;94.45;98641.05;104759;1313;22544;-77
2022/12/31 09:13:24;;;;;;;16.80;10.70;;;;;;;7.13;94.20;98638.63;105798;1304;22218;-78
2022/12/31 09:16:00;;;;;;;17.30;10.40;;;;;;;7.20;94.22;98635.92;104228;1297;139238;-78
2022/12/31 09:18:28;;;;;;;16.80;10.60;;;;;;;7.27;94.22;98628.01;104098;1303;25371;-77
2022/12/31 09:20:55;;;;;;;14.40;8.60;;;;;;;7.34;93.88;98621.65;105343;1306;138233;-77
2022/12/31 09:23:21;;;;;;;13.70;8.40;;;;;;;7.41;93.73;98616.23;103116;1295;22475;-77
2022/12/31 09:26:07;;;;;;;13.30;9.00;;;;;;;7.47;93.14;98611.17;103742;1311;22542;-77
2022/12/31 09:28:44;;;;;;;15.20;9.50;;;;;;;7.54;93.02;98603.66;103454;1298;22473;-78
2022/12/31 09:31:20;;;;;;;13.50;9.00;;;;;;;7.61;92.75;98601.54;103803;1298;22482;-77
2022/12/31 09:34:11;;;;;;;15.60;9.50;;;;;;;7.68;92.57;98597.20;104393;1290;139671;-77
2022/12/31 09:36:45;;;;;;;16.60;9.00;;;;;;;7.74;92.32;98595.47;103422;1298;26557;-77
2022/12/31 09:39:19;;;;;;;16.20;9.60;;;;;;;7.79;91.97;98599.33;104409;1291;138270;-78
2022/12/31 09:42:26;;;;;;;14.30;8.70;;;;;;;7.82;91.60;98601.56;103086;1290;22472;-77
2022/12/31 09:45:32;;;;;;;14.00;8.90;;;;;;;7.89;91.46;98613.09;103392;1292;138413;-77
2022/12/31 09:48:14;;;;;;;14.00;8.60;;;;;;;7.96;91.42;98606.30;104704;1300;23285;-78
2022/12/31 09:50:53;;;;;;;12.50;8.40;;;;;;;8.02;91.17;98597.94;103490;1306;140094;-77
2022/12/31 09:53:30;;;;;;;14.10;8.10;;;;;;;8.11;91.03;98599.30;103890;1290;24287;-77
2022/12/31 09:56:14;;;;;;;11.60;7.90;;;;;;;8.21;90.95;98597.89;103899;1290;22486;-78
2022/12/31 09:59:02;;;;;;;12.60;7.70;;;;;;;8.29;90.86;98597.21;102932;1296;24227;-77
2022/12/31 10:01:37;;;;;;;11.20;7.00;;;;;;;8.38;90.70;98592.02;103678;1307;22441;-78
2022/12/31 10:04:25;;;;;;;10.10;6.70;;;;;;;8.45;90.52;98585.32;103383;1294;138061;-78
2022/12/31 10:07:10;;;;;;;10.50;6.30;;;;;;;8.54;90.46;98580.26;103186;1297;23420;-77
2022/12/31 10:10:02;;;;;;;9.50;6.80;;;;;;;8.64;90.28;98581.27;102963;1289;141021;-77
2022/12/31 10:13:03;;;;;;;12.40;6.70;;;;;;;8.74;90.03;98586.95;102998;1313;24351;-77
2022/12/31 10:16:00;;;;;;;9.30;5.70;;;;;;;8.84;89.80;98591.98;103181;1284;138170;-77
2022/12/31 10:18:52;;;;;;;8.80;5.20;;;;;;;8.96;89.53;98597.73;103465;1295;24405;-77
2022/12/31 10:21:36;;;;;;;7.30;5.20;;;;;;;9.08;89.14;98594.61;103396;1307;137935;-78
2022/12/31 10:24:25;;;;;;;9.10;5.40;;;;;;;9.20;88.71;98590.96;103418;1287;22487;-78
2022/12/31 10:27:08;;;;;;;8.50;5.30;;;;;;;9.31;88.49;98587.16;103253;1302;138124;-78
2022/12/31 10:29:46;;;;;;;7.40;4.80;;;;;;;9.42;88.21;98589.06;103897;1299;23236;-78
2022/12/31 10:32:25;;;;;;;8.10;5.00;;;;;;;9.54;87.71;98584.40;105330;1298;139321;-77
2022/12/31 10:34:54;;;;;;;7.30;4.50;;;;;;;9.66;87.46;98585.28;103568;1288;22478;-77
2022/12/31 10:37:35;;;;;;;5.50;4.00;;;;;;;9.76;87.31;98572.19;103905;1286;25351;-78
2022/12/31 10:40:08;;;;;;;6.50;4.30;;;;;;;9.84;87.07;98566.07;103366;1291;139565;-78
2022/12/31 10:43:08;;;;;;;6.00;3.80;;;;;;;9.94;86.69;98571.56;103131;1291;22486;-78
2022/12/31 10:45:53;;;;;;;4.40;3.10;;;;;;;10.04;86.12;98571.08;103000;1312;138639;-78
2022/12/31 10:48:38;;;;;;;6.00;3.90;;;;;;;10.14;85.56;98570.80;103401;1300;22604;-77
2022/12/31 10:51:29;;;;;;;5.60;3.00;;;;;;;10.24;85.52;98569.38;103596;1308;138157;-78
2022/12/31 10:54:21;;;;;;;5.40;2.80;;;;;;;10.36;85.10;98571.30;104140;1305;24289;-79
2022/12/31 10:57:20;;;;;;;4.00;2.80;;;;;;;10.48;84.96;98568.33;104721;1298;138751;-81
2022/12/31 11:00:05;;;;;;;3.00;2.20;;;;;;;10.59;84.25;98565.22;103194;1297;24403;-79
2022/12/31 11:02:39;;;;;;;3.60;2.40;;;;;;;10.67;84.13;98565.05;102462;1310;138498;-80
2022/12/31 11:05:09;;;;;;;3.40;2.30;;;;;;;10.75;83.74;98568.63;102491;1320;24418;-78
2022/12/31 11:07:59;;;;;;;4.70;2.60;;;;;;;10.85;83.45;98580.79;103458;1297;22484;-80
2022/12/31 11:11:03;;;;;;;3.80;2.30;;;;;;;10.95;83.45;98583.55;102682;1295;138172;-80
2022/12/31 11:13:56;;;;;;;4.40;2.50;;;;;;;11.02;82.98;98583.02;102947;1298;22522;-80
2022/12/31 11:16:37;;;;;;;3.10;2.50;;;;;;;11.08;82.91;98583.98;104072;1290;138902;-79
2022/12/31 11:19:41;;;;;;;4.30;2.60;;;;;;;11.13;82.45;98578.64;102905;1298;23263;-80
2022/12/31 11:22:07;;;;;;;4.10;2.20;;;;;;;11.18;82.55;98575.95;103590;1296;138193;-80
2022/12/31 11:24:54;;;;;;;3.40;2.40;;;;;;;11.20;82.28;98575.87;103289;1298;22538;-79
2022/12/31 11:27:52;;;;;;;3.70;2.60;;;;;;;11.21;82.08;98578.99;102371;1296;139560;-80
2022/12/31 11:30:38;;;;;;;4.20;2.60;;;;;;;11.22;82.10;98574.70;103456;1296;25300;-80
2022/12/31 11:33:34;;;;;;;3.10;2.30;;;;;;;11.21;82.07;98575.73;103077;1303;138332;-80
2022/12/31 11:36:10;;;;;;;6.40;2.60;;;;;;;11.21;82.00;98579.45;102798;1313;22985;-79
2022/12/31 11:38:44;;;;;;;6.70;3.70;;;;;;;11.21;81.50;98578.49;103033;1284;138759;-78
2022/12/31 11:41:20;;;;;;;4.60;2.60;;;;;;;11.21;81.57;98583.41;103005;1287;22485;-79
2022/12/31 11:44:41;;;;;;;3.60;2.60;;;;;;;11.21;81.38;98586.79;103766;1291;22503;-80
2022/12/31 11:47:15;;;;;;;3.10;2.40;;;;;;;11.22;81.66;98593.20;102442;1297;22591;-80
2022/12/31 11:50:00;;;;;;;3.00;2.30;;;;;;;11.22;81.68;98595.96;102435;1319;22487;-80
2022/12/31 11:52:47;;;;;;;5.30;2.90;;;;;;;11.23;81.32;98597.56;102382;1319;138757;-79
2022/12/31 11:55:51;;;;;;;2.80;2.30;;;;;;;11.25;81.45;98585.28;103601;1297;22256;-80
2022/12/31 11:58:19;;;;;;;5.10;2.20;;;;;;;11.26;81.44;98581.27;103736;1303;140343;-79